Time;durP1;ratioP1;P1;durP2;ratioP2;P2;SDS_P1;SDS_P2;PMS_P1;PMS_P2;Temp;Humidity;BMP_temperature;BMP_pressure;BME280_temperature;BME280_humidity;BME280_pressure;Samples;Min_cycle;Max_cycle;Signal;HPM_P1;HPM_P2
2024/02/18 00:00:53;;;;;;;29.07;18.57;;;10.20;99.90;;;;;;799277;177;26462;-80
2024/02/18 00:03:27;;;;;;;31.83;19.40;;;10.10;99.90;;;;;;801128;179;26567;-78
2024/02/18 00:05:57;;;;;;;30.97;19.50;;;10.10;99.90;;;;;;787981;179;26449;-80
2024/02/18 00:08:26;;;;;;;30.03;18.83;;;10.10;99.90;;;;;;786885;179;26484;-79
2024/02/18 00:10:53;;;;;;;27.57;19.30;;;10.10;99.90;;;;;;791467;179;26435;-81
2024/02/18 00:13:29;;;;;;;31.97;19.27;;;10.10;99.90;;;;;;803840;177;26423;-79
2024/02/18 00:16:00;;;;;;;24.27;18.13;;;10.00;99.90;;;;;;787904;181;26454;-81
2024/02/18 00:18:32;;;;;;;23.63;17.53;;;10.00;99.90;;;;;;788375;179;26458;-79
2024/02/18 00:21:02;;;;;;;27.03;19.77;;;10.00;99.90;;;;;;797456;177;26480;-79
2024/02/18 00:23:40;;;;;;;;;;;;;;;;;;;;;
2024/02/18 00:26:08;;;;;;;28.67;19.87;;;10.00;99.90;;;;;;801423;177;26424;-78
2024/02/18 00:28:36;;;;;;;24.40;18.00;;;10.00;99.90;;;;;;790704;177;26434;-78
2024/02/18 00:31:04;;;;;;;26.10;18.50;;;10.00;99.90;;;;;;803827;176;26430;-79
2024/02/18 00:33:31;;;;;;;28.83;19.10;;;10.00;99.90;;;;;;789004;176;26476;-80
2024/02/18 00:36:02;;;;;;;32.40;19.40;;;9.90;99.90;;;;;;798548;176;26438;-77
2024/02/18 00:38:31;;;;;;;31.63;19.63;;;9.90;99.90;;;;;;798478;175;26423;-80
2024/02/18 00:40:58;;;;;;;29.70;18.87;;;9.90;99.90;;;;;;796362;179;26604;-80
2024/02/18 00:43:28;;;;;;;28.67;17.83;;;10.00;99.90;;;;;;794831;179;26462;-79
2024/02/18 00:48:53;;;;;;;27.37;19.07;;;9.90;99.90;;;;;;791759;179;26440;-78
2024/02/18 00:54:05;;;;;;;26.93;18.40;;;9.90;99.90;;;;;;790472;171;26485;-86
2024/02/18 00:56:31;;;;;;;29.80;18.87;;;9.90;99.90;;;;;;766949;182;26503;-85
2024/02/18 00:58:58;;;;;;;33.37;19.33;;;9.90;99.90;;;;;;765103;184;26495;-86
2024/02/18 01:01:25;;;;;;;28.70;18.20;;;9.90;99.90;;;;;;775749;181;27079;-86
2024/02/18 01:03:52;;;;;;;27.40;17.97;;;9.90;99.90;;;;;;755274;184;26528;-86
2024/02/18 01:06:19;;;;;;;30.70;18.25;;;9.90;99.90;;;;;;768168;182;23857;-88
2024/02/18 01:08:45;;;;;;;26.93;17.07;;;9.90;99.90;;;;;;779673;184;26502;-86
2024/02/18 01:11:12;;;;;;;27.67;17.70;;;9.90;99.90;;;;;;768061;182;26464;-85
2024/02/18 01:13:39;;;;;;;24.23;16.83;;;9.90;99.90;;;;;;769654;184;26478;-86
2024/02/18 01:27:09;;;;;;;27.10;17.10;;;10.00;99.90;;;;;;746948;171;26506;-76
2024/02/18 01:29:38;;;;;;;27.20;15.67;;;10.00;99.90;;;;;;781067;183;26488;-79
2024/02/18 01:32:02;;;;;;;23.47;15.00;;;10.00;99.90;;;;;;780831;184;26476;-79
2024/02/18 01:34:29;;;;;;;23.80;15.53;;;10.00;99.90;;;;;;770927;184;26483;-79
2024/02/18 01:36:55;;;;;;;20.60;14.80;;;10.00;99.90;;;;;;770713;184;26643;-79
2024/02/18 01:39:22;;;;;;;24.73;15.40;;;10.00;99.90;;;;;;770166;184;26470;-78
2024/02/18 01:41:49;;;;;;;21.93;16.30;;;9.90;99.90;;;;;;771474;184;26473;-82
2024/02/18 01:44:16;;;;;;;19.80;14.67;;;9.90;99.90;;;;;;770868;184;26481;-79
2024/02/18 01:46:44;;;;;;;20.40;14.43;;;9.90;99.90;;;;;;770144;184;26485;-79
2024/02/18 01:49:21;;;;;;;26.30;15.27;;;9.90;99.90;;;;;;774257;183;26531;-78
2024/02/18 01:51:48;;;;;;;21.20;14.60;;;9.90;99.90;;;;;;773350;183;28154;-78
2024/02/18 01:54:15;;;;;;;19.83;13.77;;;9.90;99.90;;;;;;773477;184;27032;-79
2024/02/18 01:56:41;;;;;;;17.33;14.37;;;9.90;99.90;;;;;;771762;183;27020;-79
2024/02/18 01:59:10;;;;;;;21.27;14.33;;;9.90;99.90;;;;;;785509;171;26507;-79
2024/02/18 02:01:36;;;;;;;23.13;15.90;;;9.90;99.90;;;;;;798961;177;26439;-78
2024/02/18 02:04:04;;;;;;;19.87;13.87;;;9.90;99.90;;;;;;802070;178;26598;-79
2024/02/18 02:06:33;;;;;;;20.83;13.80;;;9.90;99.90;;;;;;779391;183;26513;-78
2024/02/18 02:09:00;;;;;;;19.73;14.37;;;9.90;99.90;;;;;;779990;180;26507;-79
2024/02/18 02:11:30;;;;;;;20.83;14.07;;;10.00;99.90;;;;;;776674;183;26627;-79
2024/02/18 02:14:01;;;;;;;19.60;13.40;;;10.00;99.90;;;;;;773630;184;26496;-78
2024/02/18 02:16:26;;;;;;;21.43;13.97;;;10.00;99.90;;;;;;780787;181;26525;-79
2024/02/18 02:19:00;;;;;;;18.33;13.10;;;9.90;99.90;;;;;;779234;184;26480;-79
2024/02/18 02:21:30;;;;;;;25.20;14.40;;;9.90;99.90;;;;;;779983;184;26470;-79
2024/02/18 02:23:57;;;;;;;16.67;13.10;;;9.90;99.90;;;;;;776009;184;26495;-76
2024/02/18 02:26:31;;;;;;;20.40;12.73;;;9.80;99.90;;;;;;775111;184;27039;-77
2024/02/18 02:29:15;;;;;;;18.87;12.53;;;9.70;99.90;;;;;;778223;183;27085;-79
2024/02/18 02:31:45;;;;;;;15.77;12.07;;;9.60;99.90;;;;;;799561;178;26493;-75
2024/02/18 02:34:12;;;;;;;18.13;12.70;;;9.50;99.90;;;;;;804331;178;26438;-79
2024/02/18 02:36:38;;;;;;;17.40;12.57;;;9.50;99.90;;;;;;806787;177;26778;-79
2024/02/18 02:39:05;;;;;;;18.70;12.93;;;9.40;99.90;;;;;;804029;176;26445;-79
2024/02/18 02:41:32;;;;;;;14.43;12.00;;;9.40;99.90;;;;;;805253;175;26440;-78
2024/02/18 02:43:58;;;;;;;18.77;12.47;;;9.40;99.90;;;;;;779925;183;26486;-76
2024/02/18 02:46:25;;;;;;;19.57;12.57;;;9.30;99.90;;;;;;798169;179;26461;-77
2024/02/18 02:48:51;;;;;;;19.73;12.33;;;9.30;99.90;;;;;;797935;179;26436;-78
2024/02/18 02:51:19;;;;;;;18.03;12.17;;;9.20;99.90;;;;;;796400;179;26512;-78
2024/02/18 02:53:45;;;;;;;14.90;10.77;;;9.20;99.90;;;;;;796811;179;26448;-78
2024/02/18 02:56:11;;;;;;;18.37;11.47;;;9.20;99.90;;;;;;777395;181;26502;-78
2024/02/18 02:58:38;;;;;;;15.43;10.03;;;9.20;99.90;;;;;;796408;179;26439;-79
2024/02/18 03:01:05;;;;;;;14.27;9.60;;;9.30;99.90;;;;;;796869;179;26456;-79
2024/02/18 03:03:31;;;;;;;14.90;10.10;;;9.30;99.90;;;;;;795840;179;26502;-76
2024/02/18 03:05:58;;;;;;;13.27;9.03;;;9.30;99.90;;;;;;796806;180;26484;-80
2024/02/18 03:08:24;;;;;;;13.50;9.57;;;9.20;99.90;;;;;;797833;180;26456;-78
2024/02/18 03:10:51;;;;;;;13.20;10.20;;;9.20;99.90;;;;;;795278;180;26453;-79
2024/02/18 03:13:19;;;;;;;12.23;7.87;;;9.20;99.90;;;;;;775320;183;26489;-79
2024/02/18 03:15:44;;;;;;;13.83;8.80;;;9.30;99.90;;;;;;789982;179;26437;-77
2024/02/18 03:18:10;;;;;;;17.10;9.10;;;9.30;99.90;;;;;;795596;180;26444;-78
2024/02/18 03:20:37;;;;;;;13.47;9.07;;;9.30;99.90;;;;;;793470;179;26691;-78
2024/02/18 03:23:04;;;;;;;13.00;8.60;;;9.20;99.90;;;;;;790537;180;26513;-79
2024/02/18 03:25:30;;;;;;;14.63;8.67;;;9.30;99.90;;;;;;777429;180;26548;-79
2024/02/18 03:27:57;;;;;;;14.33;9.20;;;9.30;99.90;;;;;;780023;183;27055;-78
2024/02/18 03:30:23;;;;;;;19.13;8.33;;;9.30;99.90;;;;;;794939;178;26469;-79
2024/02/18 03:32:50;;;;;;;15.50;10.37;;;9.30;99.90;;;;;;795002;178;27014;-79
2024/02/18 03:35:17;;;;;;;12.60;9.10;;;9.30;99.90;;;;;;794025;179;26432;-75
2024/02/18 03:37:43;;;;;;;12.67;8.80;;;9.30;99.90;;;;;;769880;184;27068;-80
2024/02/18 03:40:12;;;;;;;12.13;8.60;;;9.20;99.90;;;;;;769652;184;26507;-79
2024/02/18 03:42:37;;;;;;;16.47;9.87;;;9.20;99.90;;;;;;775808;184;26501;-79
2024/02/18 03:45:04;;;;;;;13.83;9.13;;;9.20;99.90;;;;;;793816;178;26448;-78
2024/02/18 03:47:31;;;;;;;14.10;9.87;;;9.20;99.90;;;;;;772727;183;26815;-77
2024/02/18 03:49:57;;;;;;;14.60;10.23;;;9.10;99.90;;;;;;772581;184;26470;-78
2024/02/18 03:52:24;;;;;;;17.83;11.40;;;9.00;99.90;;;;;;794669;178;26462;-79
2024/02/18 03:54:51;;;;;;;17.13;10.17;;;9.00;99.90;;;;;;794996;180;26451;-78
2024/02/18 03:57:18;;;;;;;14.60;10.30;;;9.00;99.90;;;;;;800841;178;26970;-79
2024/02/18 03:59:46;;;;;;;17.13;10.80;;;9.00;99.90;;;;;;800693;178;26946;-80
2024/02/18 04:02:11;;;;;;;15.90;10.90;;;9.00;99.90;;;;;;799637;179;26444;-79
2024/02/18 04:04:38;;;;;;;15.80;10.43;;;9.10;99.90;;;;;;795498;180;26427;-79
2024/02/18 04:07:04;;;;;;;12.33;9.53;;;9.00;99.90;;;;;;791410;178;26424;-78
2024/02/18 04:09:31;;;;;;;15.87;10.87;;;9.00;99.90;;;;;;793129;179;26433;-79
2024/02/18 04:11:58;;;;;;;12.07;8.77;;;9.10;99.90;;;;;;805390;176;26413;-78
2024/02/18 04:14:24;;;;;;;15.53;9.73;;;9.10;99.90;;;;;;804317;177;27066;-79
2024/02/18 04:16:51;;;;;;;10.33;7.67;;;9.10;99.90;;;;;;800850;178;26451;-79
2024/02/18 04:19:17;;;;;;;9.47;7.17;;;9.10;99.90;;;;;;800056;178;26423;-78
2024/02/18 04:21:44;;;;;;;9.60;7.33;;;9.20;99.90;;;;;;800909;178;26418;-79
2024/02/18 04:24:10;;;;;;;10.53;6.70;;;9.20;99.90;;;;;;782684;180;26491;-79
2024/02/18 04:26:37;;;;;;;10.43;6.80;;;9.30;99.90;;;;;;801417;179;26440;-79
2024/02/18 04:29:04;;;;;;;10.60;6.30;;;9.30;99.90;;;;;;800827;179;26425;-75
2024/02/18 04:31:30;;;;;;;11.33;6.70;;;9.40;99.90;;;;;;798441;178;26462;-80
2024/02/18 04:33:57;;;;;;;29.20;17.87;;;9.40;99.90;;;;;;796578;179;27710;-79
2024/02/18 04:36:24;;;;;;;17.27;6.83;;;9.40;99.90;;;;;;800217;178;26425;-78
2024/02/18 04:38:50;;;;;;;7.90;5.97;;;9.40;99.90;;;;;;798017;178;26425;-78
2024/02/18 04:41:17;;;;;;;8.73;5.60;;;9.40;99.90;;;;;;796397;180;26640;-77
2024/02/18 04:43:43;;;;;;;8.57;5.00;;;9.30;99.90;;;;;;796208;178;27704;-76
2024/02/18 04:46:10;;;;;;;9.40;5.80;;;9.30;99.90;;;;;;792728;181;27050;-77
2024/02/18 04:48:36;;;;;;;7.40;5.10;;;9.30;99.90;;;;;;792680;181;26485;-76
2024/02/18 04:51:03;;;;;;;8.20;5.30;;;9.30;99.90;;;;;;792257;181;26494;-77
2024/02/18 04:53:30;;;;;;;8.60;5.60;;;9.40;99.90;;;;;;790343;179;26711;-77
2024/02/18 04:55:56;;;;;;;10.83;6.00;;;9.40;99.90;;;;;;778336;183;26644;-77
2024/02/18 04:58:23;;;;;;;10.03;5.80;;;9.40;99.90;;;;;;777560;184;26523;-77
2024/02/18 05:00:50;;;;;;;9.53;5.87;;;9.40;99.90;;;;;;777844;184;27075;-77
2024/02/18 05:03:16;;;;;;;9.67;5.60;;;9.40;99.90;;;;;;778093;180;26536;-78
2024/02/18 05:05:43;;;;;;;11.00;6.80;;;9.30;99.90;;;;;;778593;181;27074;-78
2024/02/18 05:08:09;;;;;;;8.93;7.17;;;9.30;99.90;;;;;;778338;184;26500;-77
2024/02/18 05:10:36;;;;;;;10.53;6.43;;;9.20;99.90;;;;;;778303;183;27078;-78
2024/02/18 05:13:02;;;;;;;11.17;6.37;;;9.10;99.90;;;;;;777999;181;26506;-77
2024/02/18 05:15:29;;;;;;;6.87;5.20;;;9.10;99.90;;;;;;778166;183;26490;-78
2024/02/18 05:17:56;;;;;;;9.27;5.37;;;9.00;99.90;;;;;;777800;184;26479;-77
2024/02/18 05:20:23;;;;;;;8.60;5.87;;;9.10;99.90;;;;;;778509;184;26513;-77
2024/02/18 05:22:49;;;;;;;9.70;4.97;;;9.00;99.90;;;;;;782040;180;26523;-78
2024/02/18 05:25:15;;;;;;;10.03;5.67;;;9.00;99.90;;;;;;766954;183;26490;-76
2024/02/18 05:27:42;;;;;;;7.87;5.23;;;9.00;99.90;;;;;;781364;184;26504;-78
2024/02/18 05:30:09;;;;;;;8.73;5.00;;;9.00;99.90;;;;;;781685;184;26611;-78
2024/02/18 05:32:35;;;;;;;6.03;4.63;;;9.10;99.90;;;;;;781606;184;26508;-79
2024/02/18 05:35:02;;;;;;;7.43;5.30;;;9.10;99.90;;;;;;781114;184;26494;-78
2024/02/18 05:37:29;;;;;;;8.97;5.30;;;9.20;99.90;;;;;;779965;184;26673;-78
2024/02/18 05:39:55;;;;;;;9.43;5.53;;;9.30;99.90;;;;;;780153;184;28073;-78
2024/02/18 05:42:22;;;;;;;9.33;4.40;;;9.30;99.90;;;;;;779376;183;26545;-77
2024/02/18 05:44:48;;;;;;;6.03;4.70;;;9.40;99.90;;;;;;779043;180;26504;-78
2024/02/18 05:47:15;;;;;;;7.60;4.60;;;9.40;99.90;;;;;;778572;181;26517;-78
2024/02/18 05:49:41;;;;;;;8.57;4.80;;;9.40;99.90;;;;;;778845;184;27021;-79
2024/02/18 05:52:10;;;;;;;9.60;4.83;;;9.30;99.90;;;;;;778816;184;26516;-78
2024/02/18 05:54:35;;;;;;;10.77;5.03;;;9.30;99.90;;;;;;778562;184;27154;-78
2024/02/18 05:57:01;;;;;;;10.30;5.50;;;9.30;99.90;;;;;;778004;181;26511;-77
2024/02/18 05:59:28;;;;;;;9.47;6.13;;;9.20;99.90;;;;;;778766;184;27053;-79
2024/02/18 06:01:54;;;;;;;10.23;6.43;;;9.20;99.90;;;;;;780779;180;26513;-78
2024/02/18 06:04:21;;;;;;;9.73;7.13;;;9.20;99.90;;;;;;778296;181;28108;-75
2024/02/18 06:06:48;;;;;;;9.57;6.77;;;9.10;99.90;;;;;;778225;184;26474;-78
2024/02/18 06:09:14;;;;;;;12.73;8.40;;;9.10;99.90;;;;;;778610;181;26545;-78
2024/02/18 06:11:41;;;;;;;10.40;7.50;;;9.00;99.90;;;;;;778307;180;26525;-78
2024/02/18 06:14:07;;;;;;;12.47;8.07;;;9.00;99.90;;;;;;778334;184;27183;-78
2024/02/18 06:16:34;;;;;;;12.40;9.27;;;9.00;99.90;;;;;;779019;184;26832;-78
2024/02/18 06:19:01;;;;;;;11.67;8.77;;;9.00;99.90;;;;;;779463;184;27053;-78
2024/02/18 06:21:27;;;;;;;11.43;8.20;;;8.90;99.90;;;;;;779051;180;26483;-78
2024/02/18 06:23:56;;;;;;;13.73;9.23;;;8.90;99.90;;;;;;779425;184;26496;-78
2024/02/18 06:26:20;;;;;;;14.27;8.50;;;8.90;99.90;;;;;;778518;184;26513;-78
2024/02/18 06:28:47;;;;;;;14.17;8.70;;;8.90;99.90;;;;;;778581;184;26504;-78
2024/02/18 06:31:13;;;;;;;17.47;9.00;;;8.90;99.90;;;;;;779277;183;26520;-77
2024/02/18 06:33:40;;;;;;;11.03;8.07;;;8.90;99.90;;;;;;779318;180;27072;-78
2024/02/18 06:36:08;;;;;;;13.13;7.80;;;8.90;99.90;;;;;;779745;184;26696;-78
2024/02/18 06:38:35;;;;;;;13.43;8.00;;;8.90;99.90;;;;;;780537;181;26516;-78
2024/02/18 06:41:00;;;;;;;12.90;8.43;;;8.90;99.90;;;;;;779457;184;26475;-78
2024/02/18 06:43:28;;;;;;;10.00;8.03;;;8.90;99.90;;;;;;779844;184;26507;-78
2024/02/18 06:45:53;;;;;;;13.57;8.43;;;8.90;99.90;;;;;;779654;184;26636;-77
2024/02/18 06:48:20;;;;;;;11.07;7.47;;;8.90;99.90;;;;;;780123;180;26497;-78
2024/02/18 06:50:46;;;;;;;14.70;8.23;;;8.90;99.90;;;;;;779811;181;27047;-78
2024/02/18 06:53:13;;;;;;;11.63;7.77;;;8.90;99.90;;;;;;779552;184;26523;-78
2024/02/18 06:55:40;;;;;;;9.53;6.80;;;8.90;99.90;;;;;;779306;184;26486;-78
2024/02/18 06:58:08;;;;;;;10.03;6.83;;;8.90;99.90;;;;;;779645;183;26476;-78
2024/02/18 07:00:33;;;;;;;10.77;6.90;;;8.90;99.90;;;;;;779747;183;26484;-77
2024/02/18 07:02:59;;;;;;;11.00;6.83;;;8.90;99.90;;;;;;779758;180;26519;-78
2024/02/18 07:05:26;;;;;;;10.33;6.70;;;8.90;99.90;;;;;;778887;184;27098;-77
2024/02/18 07:07:53;;;;;;;11.93;7.23;;;8.90;99.90;;;;;;778311;184;26475;-78
2024/02/18 07:10:20;;;;;;;7.03;5.87;;;8.90;99.90;;;;;;778614;180;27054;-78
2024/02/18 07:12:47;;;;;;;7.97;6.33;;;9.00;99.90;;;;;;778058;184;26486;-77
2024/02/18 07:15:13;;;;;;;10.30;6.03;;;9.00;99.90;;;;;;778061;181;27057;-77
2024/02/18 07:17:41;;;;;;;7.07;6.03;;;9.00;99.90;;;;;;778194;183;27125;-77
2024/02/18 07:20:07;;;;;;;9.83;6.33;;;9.00;99.90;;;;;;778144;184;26508;-77
2024/02/18 07:22:34;;;;;;;12.33;6.17;;;9.00;99.90;;;;;;778020;184;26474;-77
2024/02/18 07:25:00;;;;;;;10.37;5.60;;;9.00;99.90;;;;;;777903;180;26491;-76
2024/02/18 07:27:27;;;;;;;11.60;5.70;;;9.00;99.90;;;;;;778126;183;26483;-78
2024/02/18 07:29:53;;;;;;;9.90;5.43;;;9.00;99.90;;;;;;778264;184;26481;-78
2024/02/18 07:32:20;;;;;;;11.37;5.50;;;9.00;99.90;;;;;;778379;184;26496;-78
2024/02/18 07:34:47;;;;;;;8.20;6.07;;;9.00;99.90;;;;;;778024;183;26511;-78
2024/02/18 07:37:13;;;;;;;10.47;6.10;;;9.00;99.90;;;;;;778094;184;27061;-77
2024/02/18 07:39:40;;;;;;;11.30;5.60;;;9.00;99.90;;;;;;778194;184;26593;-78
2024/02/18 07:42:08;;;;;;;10.67;5.63;;;9.00;99.90;;;;;;778709;181;26478;-78
2024/02/18 07:44:33;;;;;;;11.77;6.27;;;8.90;99.90;;;;;;779314;182;26491;-78
2024/02/18 07:47:00;;;;;;;12.53;5.80;;;8.90;99.90;;;;;;781349;184;26509;-78
2024/02/18 07:49:26;;;;;;;7.80;5.50;;;8.90;99.90;;;;;;781498;180;26479;-77
2024/02/18 07:51:54;;;;;;;8.27;6.23;;;8.90;99.90;;;;;;781653;184;26644;-77
2024/02/18 07:54:20;;;;;;;9.97;5.87;;;8.90;99.90;;;;;;781599;184;26540;-78
2024/02/18 07:56:47;;;;;;;10.23;6.37;;;8.90;99.90;;;;;;781137;183;26471;-77
2024/02/18 07:59:13;;;;;;;12.30;5.90;;;8.90;99.90;;;;;;781644;184;26659;-79
2024/02/18 08:01:40;;;;;;;6.83;5.57;;;8.90;99.90;;;;;;781640;184;26470;-78
2024/02/18 08:04:07;;;;;;;12.23;5.87;;;9.00;99.90;;;;;;780203;180;26507;-74
2024/02/18 08:06:33;;;;;;;11.13;5.57;;;9.00;99.90;;;;;;778448;184;26500;-77
2024/02/18 08:09:00;;;;;;;13.33;6.73;;;9.00;99.90;;;;;;778369;184;27009;-76
2024/02/18 08:11:26;;;;;;;11.23;5.60;;;9.00;99.90;;;;;;779194;184;26541;-77
2024/02/18 08:13:53;;;;;;;7.47;5.20;;;9.10;99.90;;;;;;778791;183;27087;-77
2024/02/18 08:16:20;;;;;;;10.43;5.87;;;9.00;99.90;;;;;;778642;183;26530;-77
2024/02/18 08:18:46;;;;;;;9.60;5.57;;;9.00;99.90;;;;;;778569;183;26565;-77
2024/02/18 08:21:13;;;;;;;8.90;5.10;;;9.00;99.90;;;;;;778166;181;26508;-78
2024/02/18 08:23:39;;;;;;;8.53;5.57;;;9.00;99.90;;;;;;778156;184;26566;-77
2024/02/18 08:26:07;;;;;;;11.07;5.73;;;9.10;99.90;;;;;;777920;180;27187;-77
2024/02/18 08:28:33;;;;;;;10.30;5.50;;;9.10;99.90;;;;;;778035;184;26689;-76
2024/02/18 08:30:59;;;;;;;12.47;5.73;;;9.10;99.90;;;;;;778397;184;26529;-76
2024/02/18 08:33:26;;;;;;;7.73;5.10;;;9.10;99.90;;;;;;778395;181;26674;-78
2024/02/18 08:35:53;;;;;;;8.57;5.60;;;9.10;99.90;;;;;;779162;181;27111;-77
2024/02/18 08:38:19;;;;;;;7.83;5.40;;;9.20;99.90;;;;;;778571;180;26475;-77
2024/02/18 08:40:46;;;;;;;9.30;5.03;;;9.20;99.90;;;;;;778169;180;26480;-77
2024/02/18 08:43:13;;;;;;;10.80;5.77;;;9.20;99.90;;;;;;778119;184;28096;-78
2024/02/18 08:45:39;;;;;;;8.17;5.30;;;9.20;99.90;;;;;;778168;184;26478;-78
2024/02/18 08:48:06;;;;;;;11.10;5.10;;;9.20;99.90;;;;;;778034;184;26470;-77
2024/02/18 08:50:32;;;;;;;8.60;5.57;;;9.30;99.90;;;;;;779143;184;26505;-78
2024/02/18 08:52:59;;;;;;;8.33;6.23;;;9.40;99.90;;;;;;780653;184;26504;-78
2024/02/18 08:55:26;;;;;;;8.83;5.43;;;9.30;99.90;;;;;;780319;177;26548;-78
2024/02/18 08:57:52;;;;;;;7.53;5.23;;;9.30;99.90;;;;;;780436;182;26551;-77
2024/02/18 09:00:19;;;;;;;11.13;5.57;;;9.30;99.90;;;;;;780094;183;26535;-78
2024/02/18 09:02:45;;;;;;;6.07;4.67;;;9.30;99.90;;;;;;779741;181;26549;-78
2024/02/18 09:05:12;;;;;;;8.03;4.73;;;9.40;99.90;;;;;;779444;184;27040;-78
2024/02/18 09:07:39;;;;;;;9.30;4.70;;;9.40;99.90;;;;;;780025;184;26670;-79
2024/02/18 09:10:06;;;;;;;7.97;5.03;;;9.30;99.90;;;;;;776708;183;26577;-76
2024/02/18 09:12:33;;;;;;;9.37;4.80;;;9.30;99.90;;;;;;779631;184;26472;-78
2024/02/18 09:15:00;;;;;;;9.40;4.70;;;9.50;99.90;;;;;;779287;183;26498;-77
2024/02/18 09:17:27;;;;;;;10.20;5.73;;;9.50;99.90;;;;;;779114;184;26471;-77
2024/02/18 09:19:53;;;;;;;8.70;4.70;;;9.40;99.90;;;;;;779385;184;26486;-77
2024/02/18 09:22:19;;;;;;;7.07;4.83;;;9.40;99.90;;;;;;779825;180;26496;-78
2024/02/18 09:24:46;;;;;;;12.07;5.80;;;9.40;99.90;;;;;;779882;184;26512;-78
2024/02/18 09:27:13;;;;;;;7.03;4.63;;;9.40;99.90;;;;;;779677;180;26474;-78
2024/02/18 09:29:39;;;;;;;7.97;4.80;;;9.40;99.90;;;;;;779639;184;26478;-77
2024/02/18 09:32:06;;;;;;;7.53;4.77;;;9.50;99.90;;;;;;779512;180;26484;-78
2024/02/18 09:34:34;;;;;;;7.83;4.70;;;9.60;99.90;;;;;;779851;181;26508;-78
2024/02/18 09:37:00;;;;;;;9.17;4.57;;;9.60;99.90;;;;;;762789;187;26478;-78
2024/02/18 09:39:26;;;;;;;10.20;4.60;;;9.60;99.90;;;;;;778070;184;26476;-78
2024/02/18 09:41:53;;;;;;;9.30;5.00;;;9.60;99.90;;;;;;779199;180;27072;-77
2024/02/18 09:44:20;;;;;;;9.43;4.40;;;9.70;99.90;;;;;;779403;184;26516;-78
2024/02/18 09:46:46;;;;;;;6.17;4.47;;;9.70;99.90;;;;;;773551;184;26486;-78
2024/02/18 09:49:13;;;;;;;9.77;4.03;;;9.70;99.90;;;;;;779683;181;27107;-78
2024/02/18 09:51:39;;;;;;;6.10;4.90;;;9.60;99.90;;;;;;779179;184;26479;-77
2024/02/18 09:54:06;;;;;;;7.00;4.77;;;9.60;99.90;;;;;;778439;180;26535;-77
2024/02/18 09:56:33;;;;;;;9.93;4.37;;;9.60;99.90;;;;;;778697;181;26534;-78
2024/02/18 09:58:59;;;;;;;7.00;4.10;;;9.70;99.90;;;;;;778914;183;26856;-74
2024/02/18 10:01:26;;;;;;;7.20;3.90;;;9.80;99.90;;;;;;778549;184;27046;-77
2024/02/18 10:03:52;;;;;;;8.60;4.37;;;9.80;99.90;;;;;;778424;181;26530;-77
2024/02/18 10:06:20;;;;;;;6.83;3.87;;;9.80;99.90;;;;;;778690;181;26491;-78
2024/02/18 10:08:51;;;;;;;5.50;3.97;;;9.70;99.90;;;;;;780461;180;26470;-77
2024/02/18 10:11:12;;;;;;;11.83;4.47;;;9.80;99.90;;;;;;780636;183;26490;-78
2024/02/18 10:13:39;;;;;;;7.27;4.40;;;9.90;99.90;;;;;;780039;184;27053;-74
2024/02/18 10:16:06;;;;;;;7.37;3.93;;;10.00;99.90;;;;;;779124;184;26486;-72
2024/02/18 10:18:33;;;;;;;8.60;4.23;;;10.00;99.70;;;;;;779293;183;26467;-72
2024/02/18 10:20:59;;;;;;;5.90;4.10;;;10.00;99.90;;;;;;779093;182;26537;-74
2024/02/18 10:23:26;;;;;;;9.03;3.93;;;10.10;99.90;;;;;;778862;181;26566;-72
2024/02/18 10:25:52;;;;;;;8.20;3.93;;;10.20;99.30;;;;;;778522;184;26708;-72
2024/02/18 10:28:19;;;;;;;7.43;3.70;;;10.00;99.20;;;;;;778317;183;27073;-73
2024/02/18 10:30:46;;;;;;;8.20;4.00;;;9.90;99.90;;;;;;778315;180;26665;-74
2024/02/18 10:33:13;;;;;;;6.27;4.10;;;10.00;99.90;;;;;;778440;184;27133;-73
2024/02/18 10:35:39;;;;;;;7.40;4.87;;;9.90;99.90;;;;;;778217;181;26487;-74
2024/02/18 10:38:07;;;;;;;7.90;4.30;;;9.90;99.90;;;;;;779219;184;26674;-79
2024/02/18 10:40:34;;;;;;;7.60;3.63;;;9.90;99.90;;;;;;778938;180;27065;-79
2024/02/18 10:43:01;;;;;;;10.83;4.10;;;9.80;99.90;;;;;;779598;184;27071;-78
2024/02/18 10:45:54;;;;;;;11.27;3.90;;;9.90;99.90;;;;;;789576;173;26847;-78
2024/02/18 10:51:30;;;;;;;7.27;4.00;;;9.90;99.90;;;;;;786218;178;26465;-78
2024/02/18 10:54:23;;;;;;;8.97;3.20;;;9.90;99.90;;;;;;798179;179;26479;-79
2024/02/18 10:57:08;;;;;;;7.53;3.60;;;9.80;99.90;;;;;;792573;180;26486;-79
2024/02/18 10:59:41;;;;;;;6.33;3.90;;;9.70;99.90;;;;;;785337;182;26461;-78
2024/02/18 11:02:08;;;;;;;6.87;3.50;;;9.70;99.90;;;;;;793219;180;26452;-78
2024/02/18 11:04:35;;;;;;;8.17;3.57;;;9.70;99.90;;;;;;783045;178;26464;-78
2024/02/18 11:07:01;;;;;;;4.13;3.37;;;9.70;99.90;;;;;;786586;182;27239;-80
2024/02/18 11:09:28;;;;;;;11.80;4.13;;;9.70;99.90;;;;;;798652;179;26451;-78
2024/02/18 11:11:55;;;;;;;6.20;3.53;;;9.50;99.90;;;;;;784627;183;26483;-78
2024/02/18 11:14:21;;;;;;;8.53;5.57;;;9.40;99.90;;;;;;785552;182;26489;-79
2024/02/18 11:16:49;;;;;;;18.20;5.77;;;9.30;99.90;;;;;;797845;179;26468;-80
2024/02/18 11:19:15;;;;;;;13.20;7.60;;;9.20;99.90;;;;;;784268;181;26479;-80
2024/02/18 11:21:42;;;;;;;8.77;4.57;;;9.20;99.90;;;;;;778126;182;26446;-77
2024/02/18 11:24:08;;;;;;;18.57;9.10;;;9.10;99.90;;;;;;782300;182;26878;-78
2024/02/18 11:26:35;;;;;;;15.80;7.90;;;9.10;99.90;;;;;;782729;182;27092;-79
2024/02/18 11:29:02;;;;;;;12.97;6.83;;;9.10;99.90;;;;;;778437;184;26488;-79
2024/02/18 11:31:29;;;;;;;13.37;7.27;;;9.10;99.90;;;;;;782117;182;27030;-79
2024/02/18 11:33:56;;;;;;;11.90;6.33;;;9.10;99.90;;;;;;780613;182;26552;-78
2024/02/18 11:36:21;;;;;;;12.27;7.63;;;9.10;99.90;;;;;;778947;183;27077;-79
2024/02/18 11:38:48;;;;;;;8.70;4.40;;;9.20;99.90;;;;;;790046;175;26425;-79
2024/02/18 11:41:19;;;;;;;8.03;3.90;;;9.30;99.90;;;;;;785269;177;26438;-80
2024/02/18 11:43:45;;;;;;;11.00;6.77;;;9.30;99.90;;;;;;773671;182;26480;-79
2024/02/18 11:46:18;;;;;;;27.97;15.30;;;9.30;99.90;;;;;;794595;179;26452;-76
2024/02/18 11:48:44;;;;;;;29.80;15.50;;;9.40;99.90;;;;;;791221;178;26452;-79
2024/02/18 11:51:11;;;;;;;8.13;5.07;;;9.40;99.90;;;;;;788799;178;26454;-81
2024/02/18 11:53:37;;;;;;;9.87;4.87;;;9.60;99.90;;;;;;792395;182;26433;-79
2024/02/18 11:56:04;;;;;;;9.87;4.30;;;9.60;99.90;;;;;;766719;182;26557;-79
2024/02/18 11:58:31;;;;;;;47.90;23.63;;;9.50;99.90;;;;;;789028;181;26431;-80
2024/02/18 12:00:57;;;;;;;11.70;5.17;;;9.50;99.90;;;;;;802669;179;26436;-81
2024/02/18 12:03:24;;;;;;;8.93;3.70;;;9.60;99.90;;;;;;790183;180;26456;-82
2024/02/18 12:05:51;;;;;;;5.73;3.90;;;9.30;99.90;;;;;;788513;181;26463;-79
2024/02/18 12:08:17;;;;;;;7.87;3.93;;;9.20;99.90;;;;;;784157;182;26444;-82
2024/02/18 12:10:44;;;;;;;8.07;4.43;;;9.20;99.90;;;;;;786379;182;26470;-80
2024/02/18 12:13:11;;;;;;;4.67;3.53;;;9.10;99.90;;;;;;790428;182;26469;-81
2024/02/18 12:15:37;;;;;;;8.80;4.40;;;9.00;99.90;;;;;;789533;182;26484;-82
2024/02/18 12:18:05;;;;;;;5.77;4.00;;;9.00;99.90;;;;;;780126;184;26467;-82
2024/02/18 12:20:33;;;;;;;11.83;5.70;;;8.90;99.90;;;;;;789363;181;26997;-80
2024/02/18 12:22:57;;;;;;;9.70;5.10;;;9.00;99.90;;;;;;779805;183;26435;-81
2024/02/18 12:25:24;;;;;;;7.43;4.43;;;9.00;99.90;;;;;;783523;179;26493;-79
2024/02/18 12:27:50;;;;;;;9.40;5.50;;;9.00;99.90;;;;;;788943;181;26437;-80
2024/02/18 12:30:19;;;;;;;11.30;6.17;;;9.00;99.90;;;;;;793120;177;26460;-80
2024/02/18 12:32:46;;;;;;;9.23;4.97;;;9.00;99.90;;;;;;779257;182;26455;-76
2024/02/18 12:35:10;;;;;;;6.83;5.30;;;9.00;99.90;;;;;;787013;180;27087;-80
2024/02/18 12:37:37;;;;;;;12.00;5.63;;;9.10;99.90;;;;;;793994;181;26440;-83
2024/02/18 12:40:05;;;;;;;9.20;5.27;;;9.10;99.90;;;;;;791624;181;26466;-79
2024/02/18 12:42:31;;;;;;;8.63;5.40;;;9.10;99.90;;;;;;784486;181;26465;-80
2024/02/18 12:44:58;;;;;;;9.13;4.83;;;9.10;99.90;;;;;;785107;180;27018;-80
2024/02/18 12:47:25;;;;;;;10.00;4.70;;;9.10;99.90;;;;;;789319;181;26486;-78
2024/02/18 12:49:51;;;;;;;9.73;5.40;;;9.00;99.90;;;;;;782907;181;28049;-79
2024/02/18 12:52:19;;;;;;;10.43;5.77;;;9.00;99.90;;;;;;787279;181;27723;-80
2024/02/18 12:54:46;;;;;;;9.87;5.80;;;9.00;99.90;;;;;;786831;181;27492;-80
2024/02/18 12:57:13;;;;;;;8.30;4.73;;;9.00;99.90;;;;;;790440;182;26626;-79
2024/02/18 12:59:39;;;;;;;9.37;4.90;;;9.10;99.90;;;;;;789986;182;26471;-81
2024/02/18 13:02:07;;;;;;;8.63;5.60;;;9.10;99.90;;;;;;788419;181;26473;-80
2024/02/18 13:04:33;;;;;;;8.83;5.43;;;9.00;99.90;;;;;;777869;182;26507;-80
2024/02/18 13:07:04;;;;;;;10.07;5.23;;;8.90;99.90;;;;;;779209;184;26470;-81